createdAt,value
2022-07-29T00:00:52.094Z,22.39
2022-07-29T00:03:18.585Z,22.27
2022-07-29T00:05:45.104Z,22.38
2022-07-29T00:08:12.672Z,22.35
2022-07-29T00:10:39.627Z,22.40
2022-07-29T00:13:06.164Z,22.38
2022-07-29T00:15:32.644Z,22.49
2022-07-29T00:17:59.055Z,22.37
2022-07-29T00:20:25.614Z,22.37
2022-07-29T00:22:52.085Z,22.38
2022-07-29T00:25:18.556Z,22.47
2022-07-29T00:27:46.709Z,22.56
2022-07-29T00:30:13.536Z,22.57
2022-07-29T00:32:40.022Z,22.58
2022-07-29T00:35:25.954Z,22.63
2022-07-29T00:37:52.460Z,22.57
2022-07-29T00:40:18.931Z,22.50
2022-07-29T00:42:53.746Z,22.42
2022-07-29T00:45:20.670Z,22.48
2022-07-29T00:47:47.567Z,22.29
2022-07-29T00:50:14.961Z,22.28
2022-07-29T00:52:42.899Z,22.17
2022-07-29T00:55:12.083Z,22.16
2022-07-29T00:57:39.447Z,22.21
2022-07-29T01:00:07.730Z,22.14
2022-07-29T01:02:34.512Z,22.07
2022-07-29T01:05:02.696Z,21.94
2022-07-29T01:07:30.871Z,21.96
2022-07-29T01:09:58.045Z,22.01
2022-07-29T01:12:27.631Z,22.03
2022-07-29T01:14:56.243Z,22.04
2022-07-29T01:17:26.647Z,21.95
2022-07-29T01:20:02.421Z,21.96
2022-07-29T01:22:37.471Z,21.96
2022-07-29T01:25:41.393Z,21.92
2022-07-29T01:28:37.140Z,21.83
2022-07-29T01:31:07.962Z,21.74
2022-07-29T01:33:51.053Z,21.63
2022-07-29T01:36:23.895Z,21.49
2022-07-29T01:39:00.682Z,21.33
2022-07-29T01:41:30.525Z,21.22
2022-07-29T01:44:12.639Z,21.30
2022-07-29T01:46:42.510Z,21.19
2022-07-29T01:49:16.933Z,21.17
2022-07-29T01:51:51.356Z,21.11
2022-07-29T01:54:27.037Z,21.00
2022-07-29T01:56:57.685Z,21.00
2022-07-29T01:59:26.249Z,21.01
2022-07-29T02:01:56.043Z,21.01
2022-07-29T02:04:29.164Z,20.98
2022-07-29T02:07:02.891Z,20.91
2022-07-29T02:09:32.535Z,20.91
2022-07-29T02:12:02.126Z,20.90
2022-07-29T02:14:34.017Z,20.90
2022-07-29T02:17:01.683Z,20.90
2022-07-29T02:19:30.439Z,20.72
2022-07-29T02:21:59.701Z,20.59
2022-07-29T02:24:27.292Z,20.63
2022-07-29T02:26:55.970Z,20.66
2022-07-29T02:29:24.662Z,20.73
2022-07-29T02:31:52.468Z,20.71
2022-07-29T02:34:21.731Z,20.76
2022-07-29T02:36:50.390Z,20.76
2022-07-29T02:39:18.502Z,20.80
2022-07-29T02:41:51.083Z,20.81
2022-07-29T02:44:20.544Z,20.91
2022-07-29T02:47:03.048Z,20.90
2022-07-29T02:50:03.161Z,20.96
2022-07-29T02:52:40.954Z,20.99
2022-07-29T02:55:20.133Z,20.98
2022-07-29T02:58:29.258Z,20.98
2022-07-29T03:01:04.289Z,20.91
2022-07-29T03:03:36.856Z,20.96
2022-07-29T03:06:05.225Z,20.91
2022-07-29T03:08:33.228Z,20.74
2022-07-29T03:11:01.631Z,20.67
2022-07-29T03:13:30.350Z,20.49
2022-07-29T03:15:58.743Z,20.40
2022-07-29T03:18:26.700Z,20.49
2022-07-29T03:20:53.523Z,20.51
2022-07-29T03:23:23.577Z,20.53
2022-07-29T03:25:53.585Z,20.55
2022-07-29T03:28:21.686Z,20.61
2022-07-29T03:30:48.851Z,20.62
2022-07-29T03:33:15.442Z,20.57
2022-07-29T03:35:42.260Z,20.53
2022-07-29T03:38:09.146Z,20.53
2022-07-29T03:40:47.480Z,20.54
2022-07-29T03:43:16.500Z,20.68
2022-07-29T03:45:46.684Z,20.62
2022-07-29T03:48:16.346Z,20.66
2022-07-29T03:50:43.328Z,20.57
2022-07-29T03:53:09.814Z,20.49
2022-07-29T03:55:45.741Z,20.54
2022-07-29T03:58:14.047Z,20.53
2022-07-29T04:00:41.774Z,20.60
2022-07-29T04:03:10.669Z,20.64
2022-07-29T04:05:38.531Z,20.57
2022-07-29T04:08:05.354Z,20.58
2022-07-29T04:10:34.144Z,20.56
2022-07-29T04:13:02.249Z,20.63
2022-07-29T04:15:31.499Z,20.70
2022-07-29T04:17:59.000Z,20.71
2022-07-29T04:20:25.492Z,20.69
2022-07-29T04:22:51.924Z,20.79
2022-07-29T04:25:18.374Z,20.80
2022-07-29T04:28:01.126Z,20.78
2022-07-29T04:30:28.247Z,20.88
2022-07-29T04:32:54.658Z,20.96
2022-07-29T04:35:21.436Z,20.97
2022-07-29T04:37:47.988Z,20.90
2022-07-29T04:40:14.901Z,20.90
2022-07-29T04:42:46.368Z,20.75
2022-07-29T04:45:13.603Z,20.57
2022-07-29T04:47:41.861Z,20.48
2022-07-29T04:50:09.921Z,20.37
2022-07-29T04:52:36.440Z,20.29
2022-07-29T04:55:04.089Z,20.26
2022-07-29T04:57:30.508Z,19.98
2022-07-29T04:59:56.922Z,19.79
2022-07-29T05:02:23.423Z,19.60
2022-07-29T05:04:49.968Z,19.50
2022-07-29T05:07:16.415Z,19.47
2022-07-29T05:09:42.877Z,19.50
2022-07-29T05:12:09.679Z,19.33
2022-07-29T05:14:36.095Z,19.45
2022-07-29T05:17:02.753Z,19.58
2022-07-29T05:19:29.216Z,19.53
2022-07-29T05:21:55.619Z,19.43
2022-07-29T05:24:22.095Z,19.37
2022-07-29T05:26:48.550Z,19.56
2022-07-29T05:29:43.960Z,19.73
2022-07-29T05:32:01.552Z,19.83
2022-07-29T05:34:27.992Z,19.71
2022-07-29T05:36:54.485Z,19.70
2022-07-29T05:39:21.419Z,19.66
2022-07-29T05:41:51.860Z,19.71
2022-07-29T05:44:18.931Z,19.71
2022-07-29T05:46:45.613Z,19.76
2022-07-29T05:49:12.447Z,19.91
2022-07-29T05:51:53.784Z,19.78
2022-07-29T05:54:21.908Z,19.71
2022-07-29T05:56:48.350Z,19.73
2022-07-29T05:59:18.239Z,19.80
2022-07-29T06:01:44.923Z,19.95
2022-07-29T06:04:11.486Z,20.11
2022-07-29T06:06:37.996Z,20.26
2022-07-29T06:09:12.058Z,20.19
2022-07-29T06:11:39.477Z,20.22
2022-07-29T06:14:06.101Z,20.21
2022-07-29T06:16:32.725Z,20.27
2022-07-29T06:18:59.192Z,20.27
2022-07-29T06:21:25.774Z,20.13
2022-07-29T06:23:52.470Z,20.10
2022-07-29T06:26:18.916Z,20.03
2022-07-29T06:28:57.354Z,19.97
2022-07-29T06:31:23.865Z,20.07
2022-07-29T06:33:50.363Z,20.10
2022-07-29T06:36:16.816Z,20.17
2022-07-29T06:38:49.201Z,20.32
2022-07-29T06:41:18.069Z,20.54
2022-07-29T06:43:51.772Z,20.62
2022-07-29T06:46:20.832Z,20.59
2022-07-29T06:48:48.661Z,20.50
2022-07-29T06:51:15.484Z,20.74
2022-07-29T06:54:00.071Z,20.92
2022-07-29T06:56:31.604Z,20.98
2022-07-29T06:58:58.314Z,21.01
2022-07-29T07:01:24.757Z,21.03
2022-07-29T07:03:51.340Z,21.19
2022-07-29T07:06:17.831Z,21.41
2022-07-29T07:08:44.637Z,21.60
2022-07-29T07:11:11.205Z,21.60
2022-07-29T07:13:37.632Z,21.68
2022-07-29T07:16:05.319Z,21.88
2022-07-29T07:18:32.001Z,22.11
2022-07-29T07:20:58.728Z,22.29
2022-07-29T07:23:25.855Z,22.44
2022-07-29T07:25:52.459Z,22.45
2022-07-29T07:28:19.254Z,22.55
2022-07-29T07:30:52.053Z,22.85
2022-07-29T07:33:18.494Z,23.19
2022-07-29T07:35:45.329Z,23.06
2022-07-29T07:38:11.839Z,23.64
2022-07-29T07:40:38.394Z,23.64
2022-07-29T07:43:04.839Z,23.65
2022-07-29T07:45:33.552Z,23.35
2022-07-29T07:48:00.370Z,23.38
2022-07-29T07:50:27.014Z,23.67
2022-07-29T07:52:55.942Z,24.43
2022-07-29T07:55:22.526Z,24.53
2022-07-29T07:57:48.954Z,24.48
2022-07-29T08:00:17.149Z,24.25
2022-07-29T08:02:44.063Z,23.95
2022-07-29T08:05:12.983Z,24.78
2022-07-29T08:07:39.979Z,25.12
2022-07-29T08:10:06.677Z,24.82
2022-07-29T08:12:33.079Z,24.66
2022-07-29T08:14:59.610Z,24.23
2022-07-29T08:17:26.949Z,24.19
2022-07-29T08:19:53.461Z,24.12
2022-07-29T08:22:19.908Z,24.26
2022-07-29T08:24:56.990Z,24.02
2022-07-29T08:27:42.588Z,24.26
2022-07-29T08:30:11.038Z,24.26
2022-07-29T08:32:53.326Z,24.57
2022-07-29T08:35:22.981Z,24.89
2022-07-29T08:37:49.805Z,25.39
2022-07-29T08:40:16.346Z,26.42
2022-07-29T08:42:42.966Z,26.81
2022-07-29T08:45:09.904Z,26.94
2022-07-29T08:47:40.343Z,27.32
2022-07-29T08:50:08.848Z,28.01
2022-07-29T08:52:38.931Z,28.15
2022-07-29T08:55:07.398Z,27.54
2022-07-29T08:57:34.891Z,27.03
2022-07-29T09:00:11.377Z,26.39
2022-07-29T09:02:46.939Z,26.29
2022-07-29T09:05:14.857Z,26.35
2022-07-29T09:07:44.162Z,26.12
2022-07-29T09:10:11.190Z,26.39
2022-07-29T09:12:38.408Z,26.85
2022-07-29T09:15:05.309Z,27.55
2022-07-29T09:17:46.876Z,27.61
2022-07-29T09:20:16.082Z,28.16
2022-07-29T09:22:42.628Z,28.03
2022-07-29T09:25:09.810Z,28.71
2022-07-29T09:27:36.957Z,29.07
2022-07-29T09:30:11.383Z,29.43
2022-07-29T09:33:04.414Z,29.17
2022-07-29T09:35:31.703Z,29.26
2022-07-29T09:37:58.239Z,28.90
2022-07-29T09:40:27.082Z,28.55
2022-07-29T09:42:57.779Z,28.90
2022-07-29T09:45:32.766Z,29.13
2022-07-29T09:48:03.899Z,28.92
2022-07-29T09:50:38.616Z,28.21
2022-07-29T09:53:05.150Z,27.73
2022-07-29T09:55:31.693Z,27.84
2022-07-29T09:58:27.862Z,28.14
2022-07-29T10:00:55.881Z,28.15
2022-07-29T10:03:23.699Z,28.14
2022-07-29T10:06:10.420Z,28.83
2022-07-29T10:08:37.284Z,29.11
2022-07-29T10:11:14.850Z,28.64
2022-07-29T10:13:43.388Z,28.86
2022-07-29T10:16:10.037Z,28.90
2022-07-29T10:18:39.278Z,28.90
2022-07-29T10:21:06.525Z,28.92
2022-07-29T10:23:46.411Z,29.06
2022-07-29T10:26:15.390Z,29.34
2022-07-29T10:28:41.972Z,29.69
2022-07-29T10:31:20.106Z,29.50
2022-07-29T10:34:02.053Z,29.70
2022-07-29T10:36:46.336Z,29.51
2022-07-29T10:39:41.578Z,29.44
2022-07-29T10:42:33.642Z,29.91
2022-07-29T10:45:02.752Z,29.81
2022-07-29T10:47:31.540Z,29.30
2022-07-29T10:50:05.492Z,29.93
2022-07-29T10:52:55.013Z,29.86
2022-07-29T10:55:49.533Z,29.96
2022-07-29T10:58:18.941Z,30.13
2022-07-29T11:00:48.080Z,29.76
2022-07-29T11:03:50.883Z,29.68
2022-07-29T11:06:26.620Z,29.32
2022-07-29T11:09:20.161Z,29.46
2022-07-29T11:11:51.521Z,29.38
2022-07-29T11:14:19.873Z,29.80
2022-07-29T11:17:01.354Z,30.13
2022-07-29T11:22:33.382Z,30.73
2022-07-29T11:25:19.073Z,30.42
2022-07-29T11:28:22.743Z,30.16
2022-07-29T11:30:51.492Z,29.60
2022-07-29T11:33:54.554Z,29.54
2022-07-29T11:36:17.346Z,29.42
2022-07-29T11:38:44.015Z,29.01
2022-07-29T11:41:23.955Z,28.62
2022-07-29T11:43:54.038Z,28.59
2022-07-29T11:46:55.536Z,28.21
2022-07-29T11:49:31.613Z,28.19
2022-07-29T11:52:02.166Z,28.78
2022-07-29T11:54:52.509Z,29.32
2022-07-29T11:57:22.170Z,29.48
2022-07-29T11:59:48.866Z,29.27
2022-07-29T12:05:10.960Z,28.59
2022-07-29T12:07:39.478Z,28.33
2022-07-29T12:10:11.745Z,28.33
2022-07-29T12:12:53.585Z,28.13
2022-07-29T12:15:24.970Z,28.03
2022-07-29T12:18:12.950Z,28.26
2022-07-29T12:20:39.622Z,28.41
2022-07-29T12:23:09.832Z,28.35
2022-07-29T12:25:38.032Z,28.51
2022-07-29T12:28:07.104Z,28.32
2022-07-29T12:30:48.717Z,28.44
2022-07-29T12:33:29.655Z,28.45
2022-07-29T12:36:12.804Z,28.50
2022-07-29T12:38:44.025Z,28.47
2022-07-29T12:41:11.312Z,28.49
2022-07-29T12:43:38.053Z,28.27
2022-07-29T12:46:15.973Z,28.21
2022-07-29T12:48:44.510Z,28.15
2022-07-29T12:51:13.321Z,28.16
2022-07-29T12:53:40.033Z,28.23
2022-07-29T12:56:40.645Z,28.21
2022-07-29T12:59:13.899Z,28.39
2022-07-29T13:01:40.562Z,28.51
2022-07-29T13:04:07.387Z,28.31
2022-07-29T13:06:46.148Z,28.00
2022-07-29T13:09:18.924Z,27.78
2022-07-29T13:11:49.303Z,27.82
2022-07-29T13:14:33.159Z,27.86
2022-07-29T13:17:28.375Z,27.99
2022-07-29T13:20:13.617Z,27.98
2022-07-29T13:22:42.151Z,27.85
2022-07-29T13:25:09.774Z,27.75
2022-07-29T13:27:39.041Z,27.81
2022-07-29T13:30:07.789Z,27.83
2022-07-29T13:32:38.358Z,27.70
2022-07-29T13:35:07.715Z,27.72
2022-07-29T13:37:35.888Z,27.75
2022-07-29T13:40:04.398Z,27.84
2022-07-29T13:42:32.339Z,27.65
2022-07-29T13:44:59.398Z,27.52
2022-07-29T13:47:32.408Z,27.55
2022-07-29T13:50:06.141Z,27.59
2022-07-29T13:52:33.537Z,27.41
2022-07-29T13:54:59.990Z,27.48
2022-07-29T13:57:26.515Z,27.60
2022-07-29T13:59:54.298Z,27.59
2022-07-29T14:02:21.692Z,27.71
2022-07-29T14:04:53.504Z,27.75
2022-07-29T14:07:19.992Z,27.81
2022-07-29T14:09:46.473Z,27.92
2022-07-29T14:12:13.132Z,27.78
2022-07-29T14:14:39.661Z,27.76
2022-07-29T14:17:07.531Z,27.67
2022-07-29T14:19:38.868Z,27.72
2022-07-29T14:22:07.192Z,27.80
2022-07-29T14:24:34.714Z,27.84
2022-07-29T14:27:05.095Z,27.75
2022-07-29T14:29:37.247Z,27.62
2022-07-29T14:32:06.878Z,27.58
2022-07-29T14:34:34.363Z,27.55
2022-07-29T14:37:00.798Z,27.60
2022-07-29T14:39:27.218Z,27.68
2022-07-29T14:41:59.440Z,27.75
2022-07-29T14:44:31.834Z,27.90
2022-07-29T14:47:00.513Z,28.04
2022-07-29T14:49:27.824Z,27.95
2022-07-29T14:51:54.566Z,27.82
2022-07-29T14:54:21.053Z,27.88
2022-07-29T14:56:47.771Z,27.97
2022-07-29T14:59:14.558Z,27.93
2022-07-29T15:01:44.066Z,28.01
2022-07-29T15:04:10.515Z,27.96
2022-07-29T15:06:37.546Z,28.11
2022-07-29T15:09:04.064Z,28.02
2022-07-29T15:11:30.586Z,27.95
2022-07-29T15:14:03.485Z,28.04
2022-07-29T15:16:30.053Z,28.02
2022-07-29T15:18:58.684Z,27.99
2022-07-29T15:21:27.945Z,28.00
2022-07-29T15:23:54.630Z,28.02
2022-07-29T15:26:21.373Z,28.03
2022-07-29T15:28:48.745Z,28.04
2022-07-29T15:31:15.568Z,28.05
2022-07-29T15:33:42.105Z,28.04
2022-07-29T15:36:08.587Z,28.14
2022-07-29T15:38:35.030Z,28.08
2022-07-29T15:41:08.264Z,28.11
2022-07-29T15:43:36.158Z,28.22
2022-07-29T15:46:21.658Z,28.28
2022-07-29T15:48:48.270Z,28.25
2022-07-29T15:51:15.164Z,28.29
2022-07-29T15:53:41.625Z,28.24
2022-07-29T15:56:08.033Z,28.18
2022-07-29T15:58:34.464Z,28.12
2022-07-29T16:01:00.911Z,28.14
2022-07-29T16:03:27.436Z,28.14
2022-07-29T16:05:53.890Z,28.07
2022-07-29T16:08:20.332Z,27.95
2022-07-29T16:10:46.815Z,27.94
2022-07-29T16:13:17.052Z,27.96
2022-07-29T16:15:46.044Z,28.01
2022-07-29T16:18:30.207Z,28.10
2022-07-29T16:20:57.180Z,28.23
2022-07-29T16:23:24.659Z,28.29
2022-07-29T16:25:59.800Z,28.22
2022-07-29T16:28:27.464Z,28.11
2022-07-29T16:30:53.948Z,28.07
2022-07-29T16:33:20.389Z,28.12
2022-07-29T16:35:46.825Z,28.13
2022-07-29T16:38:13.314Z,28.33
2022-07-29T16:40:39.747Z,28.46
2022-07-29T16:43:06.571Z,28.45
2022-07-29T16:45:42.613Z,28.54
2022-07-29T16:48:13.523Z,28.47
2022-07-29T16:50:41.453Z,28.59
2022-07-29T16:53:10.426Z,28.55
2022-07-29T16:55:36.929Z,28.43
2022-07-29T16:58:03.389Z,28.45
2022-07-29T17:00:29.933Z,28.50
2022-07-29T17:02:56.449Z,28.28
2022-07-29T17:05:23.117Z,28.36
2022-07-29T17:07:49.957Z,28.43
2022-07-29T17:10:16.388Z,28.48
2022-07-29T17:12:42.845Z,28.45
2022-07-29T17:15:11.716Z,28.41
2022-07-29T17:17:56.360Z,28.37
2022-07-29T17:20:23.632Z,28.28
2022-07-29T17:22:50.022Z,28.26
2022-07-29T17:25:21.140Z,28.24
2022-07-29T17:27:50.533Z,28.22
2022-07-29T17:30:17.874Z,28.23
2022-07-29T17:32:44.370Z,28.22
2022-07-29T17:35:29.241Z,28.26
2022-07-29T17:37:55.893Z,28.33
2022-07-29T17:40:22.527Z,28.25
2022-07-29T17:42:49.071Z,28.21
2022-07-29T17:45:15.687Z,28.11
2022-07-29T17:47:42.123Z,28.14
2022-07-29T17:50:08.881Z,28.10
2022-07-29T17:52:35.318Z,28.09
2022-07-29T17:55:02.582Z,28.04
2022-07-29T17:57:29.124Z,28.04
2022-07-29T17:59:55.569Z,27.96
2022-07-29T18:02:22.038Z,27.73
2022-07-29T18:04:51.496Z,27.66
2022-07-29T18:07:18.551Z,27.54
2022-07-29T18:09:45.202Z,27.50
2022-07-29T18:12:11.666Z,27.51
2022-07-29T18:14:38.438Z,27.48
2022-07-29T18:17:04.929Z,27.43
2022-07-29T18:19:31.370Z,27.43
2022-07-29T18:22:03.181Z,27.33
2022-07-29T18:24:31.407Z,27.23
2022-07-29T18:26:58.054Z,27.22
2022-07-29T18:29:24.944Z,27.24
2022-07-29T18:31:51.404Z,27.11
2022-07-29T18:34:17.999Z,27.00
2022-07-29T18:36:45.749Z,27.04
2022-07-29T18:39:13.185Z,27.03
2022-07-29T18:41:50.114Z,26.97
2022-07-29T18:44:18.925Z,26.85
2022-07-29T18:46:47.434Z,26.73
2022-07-29T18:49:14.635Z,26.62
2022-07-29T18:51:41.126Z,26.62
2022-07-29T18:54:09.137Z,26.50
2022-07-29T18:56:35.975Z,26.51
2022-07-29T18:59:03.009Z,26.43
2022-07-29T19:01:31.731Z,26.35
2022-07-29T19:03:58.887Z,26.25
2022-07-29T19:06:25.914Z,26.21
2022-07-29T19:08:53.263Z,26.15
2022-07-29T19:11:19.669Z,26.11
2022-07-29T19:13:46.135Z,26.04
2022-07-29T19:16:14.037Z,26.01
2022-07-29T19:18:41.384Z,26.00
2022-07-29T19:21:07.872Z,25.89
2022-07-29T19:24:00.721Z,25.83
2022-07-29T19:26:21.215Z,25.77
2022-07-29T19:28:48.883Z,25.69
2022-07-29T19:31:15.971Z,25.66
2022-07-29T19:33:42.780Z,25.59
2022-07-29T19:36:09.425Z,25.55
2022-07-29T19:38:38.139Z,25.58
2022-07-29T19:41:06.121Z,25.54
2022-07-29T19:43:50.844Z,25.54
2022-07-29T19:46:19.310Z,25.45
2022-07-29T19:48:45.931Z,25.36
2022-07-29T19:51:12.423Z,25.30
2022-07-29T19:53:38.817Z,25.30
2022-07-29T19:56:05.371Z,25.24
2022-07-29T19:58:35.601Z,25.27
2022-07-29T20:01:02.719Z,25.20
2022-07-29T20:03:36.795Z,25.21
2022-07-29T20:06:03.368Z,25.25
2022-07-29T20:08:29.774Z,25.18
2022-07-29T20:10:56.252Z,25.14
2022-07-29T20:13:22.699Z,25.13
2022-07-29T20:15:49.230Z,25.12
2022-07-29T20:18:16.049Z,25.06
2022-07-29T20:20:42.589Z,25.01
2022-07-29T20:23:09.528Z,25.04
2022-07-29T20:25:36.709Z,25.09
2022-07-29T20:28:03.330Z,24.97
2022-07-29T20:30:29.760Z,24.72
2022-07-29T20:32:57.277Z,24.66
2022-07-29T20:35:23.819Z,24.54
2022-07-29T20:37:52.253Z,24.50
2022-07-29T20:40:23.443Z,24.46
2022-07-29T20:42:49.868Z,24.46
2022-07-29T20:45:16.333Z,24.48
2022-07-29T20:47:42.818Z,24.46
2022-07-29T20:50:10.130Z,24.41
2022-07-29T20:52:36.608Z,24.44
2022-07-29T20:55:03.256Z,24.46
2022-07-29T20:57:39.184Z,24.48
2022-07-29T21:00:07.167Z,24.52
2022-07-29T21:02:33.707Z,24.54
2022-07-29T21:05:00.513Z,24.54
2022-07-29T21:07:26.977Z,24.41
2022-07-29T21:09:53.381Z,24.44
2022-07-29T21:12:19.799Z,24.50
2022-07-29T21:14:49.441Z,24.56
2022-07-29T21:17:16.677Z,24.54
2022-07-29T21:19:43.150Z,24.54
2022-07-29T21:22:09.885Z,24.46
2022-07-29T21:24:36.340Z,24.45
2022-07-29T21:27:21.992Z,24.39
2022-07-29T21:29:48.900Z,24.29
2022-07-29T21:32:29.595Z,24.32
2022-07-29T21:34:56.756Z,24.31
2022-07-29T21:37:23.335Z,24.08
2022-07-29T21:39:49.861Z,24.00
2022-07-29T21:42:16.359Z,23.99
2022-07-29T21:44:42.831Z,23.96
2022-07-29T21:47:09.711Z,23.82
2022-07-29T21:49:36.228Z,23.79
2022-07-29T21:52:04.540Z,23.79
2022-07-29T21:54:31.504Z,23.78
2022-07-29T21:56:58.183Z,23.72
2022-07-29T21:59:24.910Z,23.64
2022-07-29T22:01:51.394Z,23.54
2022-07-29T22:04:17.910Z,23.55
2022-07-29T22:06:44.395Z,23.47
2022-07-29T22:09:10.835Z,23.40
2022-07-29T22:11:37.274Z,23.32
2022-07-29T22:14:05.177Z,23.38
2022-07-29T22:16:31.806Z,23.29
2022-07-29T22:18:58.273Z,23.31
2022-07-29T22:21:24.765Z,23.29
2022-07-29T22:23:51.175Z,23.25
2022-07-29T22:26:17.616Z,23.30
2022-07-29T22:28:44.086Z,23.24
2022-07-29T22:31:10.587Z,23.27
2022-07-29T22:33:37.087Z,23.33
2022-07-29T22:36:03.666Z,23.25
2022-07-29T22:38:30.090Z,23.16
2022-07-29T22:40:58.767Z,23.09
2022-07-29T22:43:27.907Z,23.10
2022-07-29T22:45:54.394Z,22.98
2022-07-29T22:48:20.968Z,23.05
2022-07-29T22:50:47.433Z,22.97
2022-07-29T22:53:13.967Z,22.99
2022-07-29T22:55:40.505Z,23.05
2022-07-29T22:58:06.985Z,23.08
2022-07-29T23:00:33.632Z,23.00
2022-07-29T23:03:00.195Z,23.02
2022-07-29T23:05:26.826Z,22.97
2022-07-29T23:07:53.304Z,22.88
2022-07-29T23:10:20.565Z,22.82
2022-07-29T23:12:46.984Z,22.76
2022-07-29T23:15:13.497Z,22.66
2022-07-29T23:17:39.935Z,22.65
2022-07-29T23:20:07.884Z,22.56
2022-07-29T23:22:35.799Z,22.54
2022-07-29T23:25:02.209Z,22.54
2022-07-29T23:27:28.628Z,22.54
2022-07-29T23:29:55.014Z,22.46
2022-07-29T23:32:21.489Z,22.51
2022-07-29T23:34:47.955Z,22.55
2022-07-29T23:37:14.485Z,22.58
2022-07-29T23:39:40.954Z,22.52
2022-07-29T23:42:07.361Z,22.49
2022-07-29T23:44:33.778Z,22.45
2022-07-29T23:47:00.469Z,22.39
2022-07-29T23:49:27.073Z,22.36
2022-07-29T23:51:53.531Z,22.31
2022-07-29T23:54:19.968Z,22.31
2022-07-29T23:56:46.521Z,22.32
2022-07-29T23:59:13.032Z,22.40
